Washington Court House, OH

10:50 PM EDT on October 24, 2014 (GMT -0400)
Slightly NW of WCH | Change Station
CLOSE
Current Station
Personal Weather Station
Location: WASHINGTON COURT HOUSE, OH
Elevation: 1020 ft
Nearby Weather Stations

Elev 1020 ft 39.57 °N, 83.50 °W | Updated 13 hours ago

Partly Cloudy
Partly Cloudy
48 °F
Feels Like 48 °F
N
5
Wind Variable Wind from WSW
Gusts 5 mph

Today
High -- | Low -- °F
--% Chance of Precip.
Yesterday
High -- | Low -- °F
Precip. -- in
7:53 AM 6:42 PM
New Moon, 2% visible
Pressure 30.07 in
Visibility 10.0 miles
Clouds Few 3900 ft
Dew Point 43 °F
Humidity 79%
Rainfall 0.00 in
Snow Depth Not available.
UV 0 out of 12
Pollen 1.40 out of 12
Air Quality Not available.
Flu Activity Sporadic
METAR KILN 250154Z AUTO 00000KT 10SM FEW039 09/04 A3004 RMK AO2 SLP182 T00940039

More Conditions Fewer Conditions

Pressure 30.07 in
Visibility 10.0 miles
Clouds Few 3900 ft
Dew Point 43 °F
Humidity 79%
Rainfall 0.00 in
Snow Depth Not available.
UV 0 out of 12
Pollen 1.40 out of 12
Air Quality Not available.
Flu Activity Sporadic
METAR KILN 250154Z AUTO 00000KT 10SM FEW039 09/04 A3004 RMK AO2 SLP182 T00940039

More Conditions Fewer Conditions

10-Day Weather Forecast

Almanac

Astronomy

Oct. 24, 2014 Rise Set
Actual Time 7:53 AM EDT 6:42 PM EDT
Civil Twilight 7:26 AM EDT 7:09 PM EDT
Nautical Twilight 6:54 AM EDT 7:41 PM EDT
Astronomical Twilight 6:23 AM EDT 8:12 PM EDT
Moon 8:31 AM EDT (10/24) 7:21 PM EDT (10/24)
Length of Visible Light 11h 43m
Length of Day
10h 48m
Tomorrow will be 2m 24s shorter.
New Moon, 2% of the Moon is Illuminated
Today
New Moon
Oct 30
First Quarter
Nov 6
Full
Nov 14
Last Quarter
Nov 22
New

Today's Extremes

State Highs State Lows

Community

WunderPhotos

Upload Photos

1,764,760 photos uploaded!

Nearby

Snow Depth

Station Depth Elevation
No new snow has been reported.

Earthquake Activity

City Distance Mag. Time & Date
No recent earthquake activity has been reported nearby.
Minimum magnitude displayed is 2.5.

Coastal Water Temperatures

Place Temperature
No Stations Reporting

Nearby Weather Stations